createdAt,value
2023-05-05T00:00:21.544Z,23.28
2023-05-05T00:01:21.549Z,23.31
2023-05-05T00:02:21.575Z,23.33
2023-05-05T00:03:21.664Z,23.43
2023-05-05T00:04:21.589Z,23.44
2023-05-05T00:05:21.571Z,23.36
2023-05-05T00:06:21.554Z,23.35
2023-05-05T00:07:21.570Z,23.48
2023-05-05T00:08:21.557Z,23.48
2023-05-05T00:09:21.565Z,23.36
2023-05-05T00:10:21.563Z,23.53
2023-05-05T00:11:21.577Z,23.50
2023-05-05T00:12:21.582Z,23.36
2023-05-05T00:13:21.582Z,23.42
2023-05-05T00:14:21.585Z,23.47
2023-05-05T00:15:21.603Z,23.48
2023-05-05T00:16:21.646Z,23.51
2023-05-05T00:17:21.609Z,23.45
2023-05-05T00:18:21.605Z,23.50
2023-05-05T00:19:21.604Z,23.48
2023-05-05T00:20:21.614Z,23.44
2023-05-05T00:21:21.612Z,23.29
2023-05-05T00:22:21.619Z,23.46
2023-05-05T00:23:21.645Z,23.60
2023-05-05T00:24:21.640Z,23.59
2023-05-05T00:25:21.653Z,23.53
2023-05-05T00:26:21.654Z,23.57
2023-05-05T00:27:21.670Z,23.46
2023-05-05T00:28:21.677Z,23.48
2023-05-05T00:29:21.694Z,23.34
2023-05-05T00:30:21.697Z,23.53
2023-05-05T00:31:21.775Z,23.53
2023-05-05T00:32:21.778Z,23.57
2023-05-05T00:33:21.719Z,23.52
2023-05-05T00:34:21.725Z,23.46
2023-05-05T00:35:21.740Z,23.57
2023-05-05T00:36:21.754Z,23.57
2023-05-05T00:37:21.765Z,23.66
2023-05-05T00:38:21.779Z,23.57
2023-05-05T00:39:21.787Z,23.52
2023-05-05T00:40:21.801Z,23.48
2023-05-05T00:41:21.810Z,23.60
2023-05-05T00:42:21.824Z,23.55
2023-05-05T00:43:21.829Z,23.57
2023-05-05T00:44:21.835Z,23.54
2023-05-05T00:45:21.848Z,23.55
2023-05-05T00:46:21.897Z,23.55
2023-05-05T00:47:21.853Z,23.61
2023-05-05T00:48:21.860Z,23.61
2023-05-05T00:49:21.864Z,23.65
2023-05-05T00:50:21.861Z,23.63
2023-05-05T00:51:21.870Z,23.60
2023-05-05T00:52:21.885Z,23.67
2023-05-05T00:53:21.878Z,23.65
2023-05-05T00:54:21.875Z,23.57
2023-05-05T00:55:21.892Z,23.69
2023-05-05T00:56:21.903Z,23.70
2023-05-05T00:57:21.889Z,23.61
2023-05-05T00:58:21.897Z,23.62
2023-05-05T00:59:21.898Z,23.58
2023-05-05T01:00:21.898Z,23.59
2023-05-05T01:01:21.933Z,23.59
2023-05-05T01:02:21.932Z,23.61
2023-05-05T01:03:21.976Z,23.63
2023-05-05T01:04:21.928Z,23.61
2023-05-05T01:05:21.933Z,23.62
2023-05-05T01:06:21.942Z,23.68
2023-05-05T01:07:21.950Z,23.59
2023-05-05T01:08:21.952Z,23.58
2023-05-05T01:09:21.957Z,23.62
2023-05-05T01:10:22.363Z,23.58
2023-05-05T01:11:21.982Z,23.52
2023-05-05T01:12:21.979Z,23.56
2023-05-05T01:13:21.980Z,23.52
2023-05-05T01:14:21.988Z,23.67
2023-05-05T01:15:21.996Z,23.65
2023-05-05T01:16:22.189Z,23.65
2023-05-05T01:17:22.027Z,23.70
2023-05-05T01:18:22.017Z,23.61
2023-05-05T01:19:22.047Z,23.62
2023-05-05T01:20:22.057Z,23.56
2023-05-05T01:21:22.066Z,23.59
2023-05-05T01:22:22.075Z,23.61
2023-05-05T01:23:22.086Z,23.65
2023-05-05T01:24:22.096Z,23.63
2023-05-05T01:25:22.109Z,23.59
2023-05-05T01:26:22.132Z,23.59
2023-05-05T01:27:22.144Z,23.67
2023-05-05T01:28:22.145Z,23.65
2023-05-05T01:29:22.164Z,23.72
2023-05-05T01:30:22.172Z,23.65
2023-05-05T01:31:22.217Z,23.63
2023-05-05T01:32:22.251Z,23.68
2023-05-05T01:33:22.223Z,23.62
2023-05-05T01:34:22.235Z,23.53
2023-05-05T01:35:22.252Z,23.68
2023-05-05T01:36:22.252Z,23.68
2023-05-05T01:37:22.272Z,23.65
2023-05-05T01:38:22.265Z,23.68
2023-05-05T01:39:22.277Z,23.57
2023-05-05T01:40:22.289Z,23.66
2023-05-05T01:41:22.300Z,23.69
2023-05-05T01:42:22.318Z,23.63
2023-05-05T01:43:22.330Z,23.68
2023-05-05T01:44:22.326Z,23.66
2023-05-05T01:45:22.341Z,23.60
2023-05-05T01:46:22.481Z,23.60
2023-05-05T01:47:22.375Z,23.71
2023-05-05T01:48:22.371Z,23.54
2023-05-05T01:49:22.382Z,23.62
2023-05-05T01:50:22.402Z,23.62
2023-05-05T01:51:22.412Z,23.62
2023-05-05T01:52:22.425Z,23.60
2023-05-05T01:53:22.425Z,23.63
2023-05-05T01:54:22.439Z,23.60
2023-05-05T01:55:22.447Z,23.63
2023-05-05T01:56:22.459Z,23.68
2023-05-05T01:57:22.463Z,23.62
2023-05-05T01:58:22.485Z,23.56
2023-05-05T01:59:22.491Z,23.61
2023-05-05T02:00:22.510Z,23.54
2023-05-05T02:01:22.573Z,23.53
2023-05-05T02:02:22.559Z,23.66
2023-05-05T02:03:22.604Z,23.60
2023-05-05T02:04:22.716Z,23.56
2023-05-05T02:05:22.579Z,23.51
2023-05-05T02:06:22.583Z,23.65
2023-05-05T02:07:22.613Z,23.60
2023-05-05T02:08:22.635Z,23.66
2023-05-05T02:09:22.636Z,23.55
2023-05-05T02:10:22.643Z,23.72
2023-05-05T02:11:22.655Z,23.60
2023-05-05T02:12:22.667Z,23.66
2023-05-05T02:13:22.728Z,23.55
2023-05-05T02:14:22.698Z,23.61
2023-05-05T02:15:22.707Z,23.70
2023-05-05T02:16:22.776Z,23.63
2023-05-05T02:17:22.768Z,23.60
2023-05-05T02:18:22.740Z,23.49
2023-05-05T02:19:22.755Z,23.55
2023-05-05T02:20:22.761Z,23.57
2023-05-05T02:21:22.785Z,23.60
2023-05-05T02:22:22.786Z,23.57
2023-05-05T02:23:22.796Z,23.55
2023-05-05T02:24:22.810Z,23.57
2023-05-05T02:25:22.818Z,23.54
2023-05-05T02:26:22.839Z,23.52
2023-05-05T02:27:22.852Z,23.40
2023-05-05T02:28:22.864Z,23.43
2023-05-05T02:29:22.884Z,23.42
2023-05-05T02:30:22.913Z,23.42
2023-05-05T02:31:22.976Z,23.40
2023-05-05T02:32:22.995Z,23.40
2023-05-05T02:33:22.932Z,23.49
2023-05-05T02:34:22.935Z,23.39
2023-05-05T02:35:22.974Z,23.32
2023-05-05T02:36:22.987Z,23.32
2023-05-05T02:37:22.978Z,23.34
2023-05-05T02:38:22.999Z,23.30
2023-05-05T02:39:23.005Z,23.35
2023-05-05T02:40:23.017Z,23.42
2023-05-05T02:41:23.022Z,23.43
2023-05-05T02:42:23.026Z,23.42
2023-05-05T02:43:23.145Z,23.38
2023-05-05T02:44:23.050Z,23.37
2023-05-05T02:45:23.084Z,23.38
2023-05-05T02:46:23.133Z,23.32
2023-05-05T02:47:23.099Z,23.27
2023-05-05T02:48:23.123Z,23.27
2023-05-05T02:49:23.124Z,23.27
2023-05-05T02:50:23.131Z,23.23
2023-05-05T02:51:23.148Z,23.22
2023-05-05T02:52:23.173Z,23.25
2023-05-05T02:53:23.200Z,23.24
2023-05-05T02:54:23.237Z,23.24
2023-05-05T02:55:23.255Z,23.25
2023-05-05T02:56:23.283Z,23.27
2023-05-05T02:57:23.316Z,23.30
2023-05-05T02:58:23.327Z,23.35
2023-05-05T02:59:23.357Z,23.01
2023-05-05T03:00:23.380Z,22.85
2023-05-05T03:01:23.455Z,22.88
2023-05-05T03:02:23.530Z,22.78
2023-05-05T03:03:23.585Z,22.75
2023-05-05T03:04:23.518Z,22.75
2023-05-05T03:05:23.559Z,22.65
2023-05-05T03:06:23.613Z,22.53
2023-05-05T03:07:23.680Z,22.66
2023-05-05T03:08:23.751Z,22.63
2023-05-05T03:09:23.821Z,22.72
2023-05-05T03:10:23.911Z,22.77
2023-05-05T03:11:23.994Z,22.84
2023-05-05T03:12:24.097Z,22.87
2023-05-05T03:13:24.192Z,22.85
2023-05-05T03:14:24.259Z,22.91
2023-05-05T03:15:24.314Z,22.91
2023-05-05T03:16:24.402Z,22.92
2023-05-05T03:17:24.391Z,22.98
2023-05-05T03:18:24.425Z,22.96
2023-05-05T03:19:24.487Z,23.05
2023-05-05T03:20:24.530Z,23.05
2023-05-05T03:21:24.558Z,23.05
2023-05-05T03:22:24.619Z,23.10
2023-05-05T03:23:24.667Z,23.21
2023-05-05T03:24:24.677Z,23.28
2023-05-05T03:25:24.725Z,23.26
2023-05-05T03:26:24.756Z,23.30
2023-05-05T03:27:24.796Z,23.29
2023-05-05T03:28:24.829Z,23.25
2023-05-05T03:29:24.864Z,23.29
2023-05-05T03:30:24.925Z,23.28
2023-05-05T03:31:24.971Z,23.34
2023-05-05T03:32:24.985Z,23.27
2023-05-05T03:33:24.986Z,23.32
2023-05-05T03:34:25.029Z,23.40
2023-05-05T03:35:25.058Z,23.37
2023-05-05T03:36:26.127Z,23.31
2023-05-05T03:37:25.152Z,23.34
2023-05-05T03:38:25.238Z,23.33
2023-05-05T03:39:25.217Z,23.35
2023-05-05T03:40:36.188Z,23.22
2023-05-05T03:41:26.294Z,23.30
2023-05-05T03:42:25.336Z,23.30
2023-05-05T03:43:25.362Z,23.21
2023-05-05T03:44:25.400Z,23.29
2023-05-05T03:45:25.412Z,23.36
2023-05-05T03:46:25.446Z,23.24
2023-05-05T03:47:25.476Z,23.34
2023-05-05T03:48:25.515Z,23.34
2023-05-05T03:49:25.549Z,23.36
2023-05-05T03:50:25.588Z,23.28
2023-05-05T03:51:25.633Z,23.38
2023-05-05T03:52:25.678Z,23.35
2023-05-05T03:53:25.718Z,23.41
2023-05-05T03:54:25.751Z,23.35
2023-05-05T03:55:25.812Z,23.36
2023-05-05T03:56:25.831Z,23.41
2023-05-05T03:57:25.869Z,23.32
2023-05-05T03:58:25.911Z,23.38
2023-05-05T03:59:25.947Z,23.41
2023-05-05T04:00:25.986Z,23.42
2023-05-05T04:01:26.028Z,23.41
2023-05-05T04:02:26.134Z,23.43
2023-05-05T04:03:26.318Z,23.48
2023-05-05T04:04:26.250Z,23.43
2023-05-05T04:05:26.282Z,23.46
2023-05-05T04:06:26.329Z,23.51
2023-05-05T04:07:26.357Z,23.49
2023-05-05T04:08:26.402Z,23.52
2023-05-05T04:09:26.440Z,23.48
2023-05-05T04:10:26.486Z,23.46
2023-05-05T04:11:26.505Z,23.51
2023-05-05T04:12:26.540Z,23.54
2023-05-05T04:13:26.602Z,23.47
2023-05-05T04:14:26.626Z,23.59
2023-05-05T04:15:26.656Z,23.52
2023-05-05T04:16:26.746Z,23.57
2023-05-05T04:17:26.760Z,23.61
2023-05-05T04:18:26.784Z,23.58
2023-05-05T04:19:26.820Z,23.59
2023-05-05T04:20:26.867Z,23.64
2023-05-05T04:21:26.894Z,23.60
2023-05-05T04:22:26.935Z,23.65
2023-05-05T04:23:26.969Z,23.65
2023-05-05T04:24:27.006Z,23.60
2023-05-05T04:25:27.054Z,23.65
2023-05-05T04:26:27.091Z,23.67
2023-05-05T04:27:27.126Z,23.69
2023-05-05T04:28:27.177Z,23.66
2023-05-05T04:29:27.220Z,23.60
2023-05-05T04:30:27.304Z,23.63
2023-05-05T04:31:27.371Z,23.65
2023-05-05T04:32:27.457Z,23.70
2023-05-05T04:33:27.539Z,23.64
2023-05-05T04:34:27.632Z,23.70
2023-05-05T04:35:27.704Z,23.67
2023-05-05T04:36:27.774Z,23.67
2023-05-05T04:37:27.897Z,23.63
2023-05-05T04:38:28.047Z,23.74
2023-05-05T04:39:28.023Z,23.74
2023-05-05T04:40:28.106Z,23.72
2023-05-05T04:41:30.014Z,23.69
2023-05-05T04:42:28.284Z,23.76
2023-05-05T04:43:28.368Z,23.76
2023-05-05T04:44:28.456Z,23.78
2023-05-05T04:45:28.544Z,23.82
2023-05-05T04:46:28.694Z,23.85
2023-05-05T04:47:28.751Z,23.86
2023-05-05T04:48:28.836Z,23.87
2023-05-05T04:49:28.920Z,23.92
2023-05-05T04:50:29.027Z,23.96
2023-05-05T04:51:29.130Z,23.99
2023-05-05T04:52:29.216Z,23.93
2023-05-05T04:53:29.322Z,23.92
2023-05-05T04:54:29.416Z,24.02
2023-05-05T04:55:29.508Z,24.03
2023-05-05T04:56:29.616Z,23.97
2023-05-05T04:57:29.727Z,24.01
2023-05-05T04:58:29.822Z,24.00
2023-05-05T04:59:29.903Z,24.05
2023-05-05T05:00:30.011Z,24.03
2023-05-05T05:01:30.075Z,24.03
2023-05-05T05:02:30.151Z,24.05
2023-05-05T05:03:30.189Z,24.04
2023-05-05T05:04:30.188Z,24.13
2023-05-05T05:05:30.217Z,24.08
2023-05-05T05:06:30.261Z,24.16
2023-05-05T05:07:30.310Z,24.48
2023-05-05T05:08:30.357Z,24.57
2023-05-05T05:09:30.387Z,24.52
2023-05-05T05:10:30.425Z,24.53
2023-05-05T05:11:30.454Z,24.55
2023-05-05T05:12:30.544Z,24.46
2023-05-05T05:13:30.527Z,24.46
2023-05-05T05:14:30.566Z,24.31
2023-05-05T05:15:30.602Z,24.32
2023-05-05T05:16:30.712Z,24.27
2023-05-05T05:17:30.674Z,24.23
2023-05-05T05:18:30.701Z,24.29
2023-05-05T05:19:30.719Z,24.29
2023-05-05T05:20:30.763Z,24.20
2023-05-05T05:21:30.785Z,24.16
2023-05-05T05:22:30.827Z,24.15
2023-05-05T05:23:30.862Z,24.12
2023-05-05T05:24:30.907Z,24.08
2023-05-05T05:25:30.916Z,24.09
2023-05-05T05:26:30.963Z,24.05
2023-05-05T05:27:30.964Z,24.02
2023-05-05T05:28:30.997Z,24.04
2023-05-05T05:29:31.016Z,24.02
2023-05-05T05:30:31.085Z,24.03
2023-05-05T05:31:31.168Z,24.03
2023-05-05T05:32:31.175Z,24.18
2023-05-05T05:33:31.231Z,24.37
2023-05-05T05:34:31.194Z,25.04
2023-05-05T05:35:31.219Z,25.10
2023-05-05T05:36:31.247Z,24.95
2023-05-05T05:37:31.577Z,24.87
2023-05-05T05:38:31.317Z,24.97
2023-05-05T05:39:31.323Z,25.04
2023-05-05T05:40:31.908Z,25.37
2023-05-05T05:41:31.469Z,25.69
2023-05-05T05:42:31.443Z,26.19
2023-05-05T05:43:31.446Z,26.33
2023-05-05T05:44:31.479Z,26.72
2023-05-05T05:45:31.501Z,27.05
2023-05-05T05:46:31.841Z,26.70
2023-05-05T05:47:31.599Z,26.65
2023-05-05T05:48:31.624Z,26.67
2023-05-05T05:49:31.632Z,26.57
2023-05-05T05:50:31.714Z,26.67
2023-05-05T05:51:31.694Z,26.95
2023-05-05T05:52:31.724Z,26.94
2023-05-05T05:53:31.772Z,26.91
2023-05-05T05:54:31.797Z,26.89
2023-05-05T05:55:31.819Z,26.79
2023-05-05T05:56:31.858Z,27.01
2023-05-05T05:57:31.893Z,26.84
2023-05-05T05:58:31.937Z,26.84
2023-05-05T05:59:31.950Z,26.81
2023-05-05T06:00:31.990Z,26.84
2023-05-05T06:01:32.012Z,26.88
2023-05-05T06:02:32.122Z,27.11
2023-05-05T06:03:32.158Z,26.97
2023-05-05T06:04:32.189Z,26.87
2023-05-05T06:05:32.138Z,26.83
2023-05-05T06:06:32.185Z,26.68
2023-05-05T06:07:32.182Z,26.86
2023-05-05T06:08:32.229Z,27.11
2023-05-05T06:09:32.316Z,27.04
2023-05-05T06:10:32.679Z,27.03
2023-05-05T06:11:32.479Z,27.11
2023-05-05T06:12:32.519Z,27.37
2023-05-05T06:13:32.552Z,27.12
2023-05-05T06:14:32.575Z,27.19
2023-05-05T06:15:32.584Z,27.13
2023-05-05T06:16:32.703Z,27.07
2023-05-05T06:17:32.653Z,27.04
2023-05-05T06:18:32.678Z,27.36
2023-05-05T06:19:32.688Z,27.21
2023-05-05T06:20:32.728Z,26.99
2023-05-05T06:21:32.752Z,26.70
2023-05-05T06:22:32.795Z,26.12
2023-05-05T06:23:32.814Z,25.65
2023-05-05T06:24:32.875Z,25.81
2023-05-05T06:25:32.966Z,25.42
2023-05-05T06:26:33.069Z,25.67
2023-05-05T06:27:33.158Z,25.33
2023-05-05T06:28:33.363Z,25.92
2023-05-05T06:29:33.375Z,25.45
2023-05-05T06:30:33.452Z,25.37
2023-05-05T06:31:33.569Z,25.42
2023-05-05T06:32:33.618Z,25.46
2023-05-05T06:33:33.704Z,25.65
2023-05-05T06:34:33.704Z,25.87
2023-05-05T06:35:33.737Z,25.81
2023-05-05T06:36:33.795Z,26.35
2023-05-05T06:37:33.786Z,26.13
2023-05-05T06:38:33.805Z,26.19
2023-05-05T06:39:33.833Z,26.28
2023-05-05T06:40:33.873Z,26.40
2023-05-05T06:41:33.884Z,26.87
2023-05-05T06:42:33.932Z,27.01
2023-05-05T06:43:33.997Z,26.72
2023-05-05T06:44:34.037Z,26.65
2023-05-05T06:45:34.088Z,26.71
2023-05-05T06:46:34.151Z,26.84
2023-05-05T06:47:34.172Z,26.84
2023-05-05T06:48:34.211Z,27.13
2023-05-05T06:49:34.251Z,27.18
2023-05-05T06:50:34.411Z,27.38
2023-05-05T06:51:34.339Z,27.35
2023-05-05T06:52:34.374Z,27.49
2023-05-05T06:53:34.410Z,27.56
2023-05-05T06:54:34.445Z,27.52
2023-05-05T06:55:34.469Z,27.56
2023-05-05T06:56:34.513Z,27.59
2023-05-05T06:57:34.551Z,27.44
2023-05-05T06:58:34.573Z,27.47
2023-05-05T06:59:34.604Z,27.49
2023-05-05T07:00:34.689Z,27.52
2023-05-05T07:01:34.662Z,27.62
2023-05-05T07:02:34.729Z,27.69
2023-05-05T07:03:34.780Z,27.82
2023-05-05T07:04:34.804Z,27.83
2023-05-05T07:05:34.828Z,27.92
2023-05-05T07:06:34.943Z,27.90
2023-05-05T07:07:34.914Z,28.00
2023-05-05T07:08:34.966Z,28.29
2023-05-05T07:09:34.993Z,28.30
2023-05-05T07:10:35.035Z,28.40
2023-05-05T07:11:35.089Z,28.37
2023-05-05T07:12:35.139Z,28.45
2023-05-05T07:13:35.166Z,28.50
2023-05-05T07:14:35.193Z,28.61
2023-05-05T07:15:35.272Z,28.59
2023-05-05T07:16:35.327Z,28.39
2023-05-05T07:17:35.316Z,28.54
2023-05-05T07:18:35.327Z,28.42
2023-05-05T07:19:35.491Z,28.41
2023-05-05T07:20:35.422Z,28.51
2023-05-05T07:21:35.445Z,28.58
2023-05-05T07:22:35.683Z,28.67
2023-05-05T07:23:35.525Z,28.47
2023-05-05T07:24:35.549Z,28.53
2023-05-05T07:25:35.585Z,28.44
2023-05-05T07:26:35.615Z,28.50
2023-05-05T07:27:35.652Z,28.45
2023-05-05T07:28:35.700Z,28.51
2023-05-05T07:29:35.717Z,28.44
2023-05-05T07:30:35.755Z,28.44
2023-05-05T07:31:35.804Z,28.43
2023-05-05T07:32:35.856Z,28.46
2023-05-05T07:33:35.872Z,28.56
2023-05-05T07:34:35.898Z,28.58
2023-05-05T07:35:35.925Z,28.47
2023-05-05T07:36:35.951Z,28.43
2023-05-05T07:37:35.970Z,28.78
2023-05-05T07:38:36.082Z,28.47
2023-05-05T07:39:36.047Z,28.18
2023-05-05T07:40:36.051Z,28.50
2023-05-05T07:41:36.088Z,28.74
2023-05-05T07:42:36.132Z,28.36
2023-05-05T07:43:36.156Z,28.22
2023-05-05T07:44:36.166Z,28.00
2023-05-05T07:45:36.185Z,27.79
2023-05-05T07:46:36.363Z,27.86
2023-05-05T07:47:36.303Z,27.56
2023-05-05T07:48:38.341Z,27.42
2023-05-05T07:49:36.274Z,27.29
2023-05-05T07:50:36.277Z,27.22
2023-05-05T07:51:36.298Z,27.27
2023-05-05T07:52:46.661Z,27.22
2023-05-05T07:53:37.347Z,27.14
2023-05-05T07:54:36.414Z,27.14
2023-05-05T07:55:36.380Z,26.92
2023-05-05T07:56:36.397Z,26.95
2023-05-05T07:57:36.420Z,26.77
2023-05-05T07:58:36.447Z,26.79
2023-05-05T07:59:36.470Z,26.57
2023-05-05T08:00:36.507Z,26.68
2023-05-05T08:01:36.521Z,26.61
2023-05-05T08:02:36.636Z,27.10
2023-05-05T08:03:36.673Z,26.71
2023-05-05T08:04:36.630Z,26.78
2023-05-05T08:05:36.623Z,26.59
2023-05-05T08:06:36.645Z,26.66
2023-05-05T08:07:36.670Z,26.83
2023-05-05T08:08:36.709Z,26.22
2023-05-05T08:09:36.722Z,25.98
2023-05-05T08:10:36.863Z,25.70
2023-05-05T08:11:36.780Z,25.76
2023-05-05T08:12:36.914Z,25.63
2023-05-05T08:13:36.961Z,25.47
2023-05-05T08:14:37.058Z,25.52
2023-05-05T08:15:37.143Z,25.41
2023-05-05T08:16:37.295Z,25.51
2023-05-05T08:17:37.406Z,25.36
2023-05-05T08:18:37.439Z,25.35
2023-05-05T08:19:37.523Z,25.26
2023-05-05T08:20:37.634Z,25.27
2023-05-05T08:21:37.728Z,25.29
2023-05-05T08:22:37.778Z,25.29
2023-05-05T08:23:37.882Z,25.52
2023-05-05T08:24:37.969Z,26.19
2023-05-05T08:25:38.048Z,26.30
2023-05-05T08:26:38.221Z,26.73
2023-05-05T08:27:38.267Z,26.83
2023-05-05T08:28:38.315Z,26.85
2023-05-05T08:29:38.409Z,26.85
2023-05-05T08:30:38.552Z,26.91
2023-05-05T08:31:38.605Z,27.09
2023-05-05T08:32:38.710Z,27.24
2023-05-05T08:33:38.624Z,26.98
2023-05-05T08:34:38.625Z,26.61
2023-05-05T08:35:38.638Z,26.52
2023-05-05T08:36:38.675Z,26.13
2023-05-05T08:37:38.705Z,26.14
2023-05-05T08:38:38.715Z,25.98
2023-05-05T08:39:38.740Z,26.03
2023-05-05T08:40:38.752Z,26.10
2023-05-05T08:41:38.779Z,26.16
2023-05-05T08:42:39.575Z,26.15
2023-05-05T08:43:38.814Z,26.19
2023-05-05T08:44:38.832Z,26.21
2023-05-05T08:45:38.854Z,26.21
2023-05-05T08:46:38.908Z,26.33
2023-05-05T08:47:39.014Z,26.17
2023-05-05T08:48:38.936Z,26.22
2023-05-05T08:49:38.940Z,26.26
2023-05-05T08:50:38.964Z,26.26
2023-05-05T08:51:38.981Z,26.22
2023-05-05T08:52:39.052Z,26.25
2023-05-05T08:53:39.044Z,26.29
2023-05-05T08:54:39.068Z,26.16
2023-05-05T08:55:39.093Z,25.99
2023-05-05T08:56:39.148Z,26.00
2023-05-05T08:57:39.219Z,26.04
2023-05-05T08:58:39.349Z,25.86
2023-05-05T08:59:39.356Z,25.86
2023-05-05T09:00:39.452Z,25.89
2023-05-05T09:01:39.462Z,25.83
2023-05-05T09:02:39.608Z,25.70
2023-05-05T09:03:39.628Z,25.60
2023-05-05T09:04:39.646Z,25.53
2023-05-05T09:05:39.709Z,25.38
2023-05-05T09:06:39.814Z,25.50
2023-05-05T09:07:39.852Z,25.47
2023-05-05T09:08:39.884Z,25.45
2023-05-05T09:09:39.898Z,25.44
2023-05-05T09:10:39.920Z,25.36
2023-05-05T09:11:39.928Z,25.19
2023-05-05T09:12:39.995Z,25.22
2023-05-05T09:13:39.969Z,25.23
2023-05-05T09:14:40.092Z,25.22
2023-05-05T09:15:40.050Z,25.07
2023-05-05T09:16:40.169Z,25.06
2023-05-05T09:17:40.113Z,24.99
2023-05-05T09:18:40.106Z,25.06
2023-05-05T09:19:40.112Z,25.15
2023-05-05T09:20:40.141Z,25.11
2023-05-05T09:21:40.219Z,25.08
2023-05-05T09:22:40.294Z,25.07
2023-05-05T09:23:40.317Z,25.08
2023-05-05T09:24:40.349Z,25.09
2023-05-05T09:25:40.363Z,25.15
2023-05-05T09:26:40.372Z,25.15
2023-05-05T09:27:40.393Z,25.18
2023-05-05T09:28:40.403Z,25.22
2023-05-05T09:29:40.434Z,25.31
2023-05-05T09:30:40.542Z,25.28
2023-05-05T09:31:40.502Z,25.18
2023-05-05T09:32:40.483Z,25.11
2023-05-05T09:33:40.508Z,25.07
2023-05-05T09:34:40.581Z,25.05
2023-05-05T09:35:40.584Z,25.08
2023-05-05T09:36:40.616Z,25.02
2023-05-05T09:37:40.647Z,24.96
2023-05-05T09:38:40.666Z,24.99
2023-05-05T09:39:40.659Z,24.89
2023-05-05T09:40:40.693Z,24.75
2023-05-05T09:41:40.700Z,25.05
2023-05-05T09:42:40.730Z,25.21
2023-05-05T09:43:40.732Z,25.76
2023-05-05T09:44:40.793Z,25.96
2023-05-05T09:45:40.774Z,26.12
2023-05-05T09:46:40.937Z,26.98
2023-05-05T09:47:40.985Z,27.12
2023-05-05T09:48:40.965Z,27.45
2023-05-05T09:49:40.924Z,27.23
2023-05-05T09:50:40.997Z,26.98
2023-05-05T09:51:40.956Z,27.22
2023-05-05T09:52:40.980Z,27.03
2023-05-05T09:53:40.989Z,27.08
2023-05-05T09:54:41.000Z,27.24
2023-05-05T09:55:41.040Z,27.51
2023-05-05T09:56:41.045Z,27.54
2023-05-05T09:57:41.064Z,28.19
2023-05-05T09:58:41.112Z,28.17
2023-05-05T09:59:41.062Z,28.30
2023-05-05T10:00:41.064Z,28.32
2023-05-05T10:01:41.092Z,28.62
2023-05-05T10:02:41.216Z,28.69
2023-05-05T10:03:41.105Z,28.85
2023-05-05T10:04:41.136Z,28.95
2023-05-05T10:05:41.133Z,28.80
2023-05-05T10:06:41.141Z,29.06
2023-05-05T10:07:41.171Z,29.11
2023-05-05T10:08:41.160Z,29.00
2023-05-05T10:09:41.154Z,29.21
2023-05-05T10:10:41.153Z,29.37
2023-05-05T10:11:41.158Z,29.17
2023-05-05T10:12:41.220Z,29.22
2023-05-05T10:13:41.152Z,29.22
2023-05-05T10:14:41.157Z,29.24
2023-05-05T10:15:41.160Z,29.25
2023-05-05T10:16:41.191Z,29.08
2023-05-05T10:17:44.052Z,29.23
2023-05-05T10:18:42.338Z,29.11
2023-05-05T10:19:41.159Z,29.10
2023-05-05T10:20:41.159Z,29.01
2023-05-05T10:21:42.058Z,28.86
2023-05-05T10:22:41.139Z,28.88
2023-05-05T10:23:41.153Z,28.64
2023-05-05T10:24:41.172Z,28.65
2023-05-05T10:25:41.171Z,28.64
2023-05-05T10:26:41.184Z,28.72
2023-05-05T10:27:41.166Z,28.54
2023-05-05T10:28:41.150Z,28.36
2023-05-05T10:29:41.158Z,27.51
2023-05-05T10:30:41.147Z,26.69
2023-05-05T10:31:41.169Z,26.73
2023-05-05T10:33:41.222Z,26.72
2023-05-05T10:34:41.275Z,26.80
2023-05-05T10:35:41.160Z,26.68
2023-05-05T10:36:41.158Z,26.62
2023-05-05T10:37:41.168Z,26.55
2023-05-05T10:38:41.150Z,26.65
2023-05-05T10:39:41.157Z,27.02
2023-05-05T10:40:41.164Z,27.00
2023-05-05T10:41:41.155Z,27.07
2023-05-05T10:42:41.145Z,27.15
2023-05-05T10:43:41.139Z,27.03
2023-05-05T10:44:41.139Z,27.03
2023-05-05T10:45:41.185Z,27.12
2023-05-05T10:46:41.285Z,27.04
2023-05-05T10:47:41.159Z,27.02
2023-05-05T10:48:41.187Z,26.99
2023-05-05T10:49:41.115Z,26.52
2023-05-05T10:50:41.169Z,25.83
2023-05-05T10:51:41.382Z,25.90
2023-05-05T10:52:41.093Z,26.11
2023-05-05T10:53:41.124Z,25.97
2023-05-05T10:54:41.095Z,25.79
2023-05-05T10:55:41.105Z,25.98
2023-05-05T10:56:41.094Z,25.98
2023-05-05T10:57:41.085Z,25.83
2023-05-05T10:58:58.372Z,25.85
2023-05-05T10:59:42.117Z,25.80
2023-05-05T11:00:41.109Z,25.52
2023-05-05T11:01:41.076Z,25.22
2023-05-05T11:02:41.111Z,25.06
2023-05-05T11:03:41.104Z,24.84
2023-05-05T11:04:41.077Z,24.75
2023-05-05T11:05:41.078Z,25.08
2023-05-05T11:06:41.207Z,25.11
2023-05-05T11:07:41.077Z,25.14
2023-05-05T11:08:41.125Z,25.05
2023-05-05T11:09:41.156Z,25.05
2023-05-05T11:10:41.201Z,24.84
2023-05-05T11:11:41.259Z,24.27
2023-05-05T11:12:41.363Z,24.47
2023-05-05T11:13:41.361Z,24.53
2023-05-05T11:14:41.414Z,24.50
2023-05-05T11:15:41.511Z,24.47
2023-05-05T11:16:41.595Z,24.28
2023-05-05T11:17:41.611Z,22.84
2023-05-05T11:18:41.639Z,23.17
2023-05-05T11:19:41.700Z,23.38
2023-05-05T11:20:41.740Z,22.82
2023-05-05T11:21:41.822Z,22.79
2023-05-05T11:22:41.877Z,22.74
2023-05-05T11:23:41.943Z,22.83
2023-05-05T11:24:42.011Z,22.35
2023-05-05T11:25:42.141Z,22.61
2023-05-05T11:26:42.141Z,22.18
2023-05-05T11:27:42.210Z,22.00
2023-05-05T11:28:42.274Z,22.40
2023-05-05T11:29:42.357Z,22.08
2023-05-05T11:30:42.434Z,21.93
2023-05-05T11:31:42.520Z,22.00
2023-05-05T11:32:42.551Z,22.01
2023-05-05T11:33:42.606Z,21.80
2023-05-05T11:34:42.668Z,21.85
2023-05-05T11:35:42.730Z,21.85
2023-05-05T11:36:42.797Z,21.89
2023-05-05T11:37:42.876Z,22.06
2023-05-05T11:38:43.006Z,22.08
2023-05-05T11:39:43.011Z,22.14
2023-05-05T11:40:43.055Z,22.03
2023-05-05T11:41:43.125Z,21.92
2023-05-05T11:42:43.192Z,22.20
2023-05-05T11:43:43.194Z,21.92
2023-05-05T11:44:43.197Z,21.94
2023-05-05T11:45:43.215Z,22.15
2023-05-05T11:46:43.247Z,22.07
2023-05-05T11:47:43.224Z,21.91
2023-05-05T11:48:43.198Z,21.83
2023-05-05T11:49:43.204Z,22.02
2023-05-05T11:50:43.196Z,21.64
2023-05-05T11:51:43.267Z,21.63
2023-05-05T11:52:43.205Z,21.68
2023-05-05T11:53:43.198Z,21.70
2023-05-05T11:54:43.267Z,21.89
2023-05-05T11:55:43.215Z,21.92
2023-05-05T11:56:43.221Z,21.99
2023-05-05T11:57:43.221Z,22.08
2023-05-05T11:58:43.213Z,22.15
2023-05-05T11:59:43.200Z,22.06
2023-05-05T12:00:43.193Z,21.94
2023-05-05T12:01:43.198Z,21.96
2023-05-05T12:02:43.254Z,22.02
2023-05-05T12:03:43.429Z,22.06
2023-05-05T12:04:43.207Z,22.02
2023-05-05T12:05:43.158Z,22.02
2023-05-05T12:06:43.245Z,22.07
2023-05-05T12:07:43.276Z,22.04
2023-05-05T12:08:43.341Z,22.06
2023-05-05T12:09:43.410Z,22.08
2023-05-05T12:10:43.536Z,22.11
2023-05-05T12:11:43.519Z,22.05
2023-05-05T12:12:43.630Z,21.97
2023-05-05T12:13:43.648Z,21.92
2023-05-05T12:14:43.717Z,21.97
2023-05-05T12:15:43.755Z,22.02
2023-05-05T12:16:43.881Z,21.95
2023-05-05T12:17:43.909Z,22.03
2023-05-05T12:18:43.931Z,22.13
2023-05-05T12:19:44.005Z,22.11
2023-05-05T12:20:44.077Z,22.16
2023-05-05T12:21:44.112Z,21.99
2023-05-05T12:22:44.186Z,22.10
2023-05-05T12:23:44.187Z,21.95
2023-05-05T12:24:44.184Z,22.14
2023-05-05T12:25:44.183Z,21.82
2023-05-05T12:26:44.285Z,21.99
2023-05-05T12:27:44.174Z,21.97
2023-05-05T12:28:44.170Z,21.83
2023-05-05T12:29:44.168Z,21.86
2023-05-05T12:30:44.186Z,21.89
2023-05-05T12:31:44.187Z,21.99
2023-05-05T12:32:44.363Z,21.99
2023-05-05T12:33:44.294Z,22.12
2023-05-05T12:34:44.343Z,21.94
2023-05-05T12:35:44.411Z,21.97
2023-05-05T12:36:44.446Z,21.99
2023-05-05T12:37:44.510Z,21.97
2023-05-05T12:38:44.551Z,22.01
2023-05-05T12:39:44.605Z,22.01
2023-05-05T12:40:44.741Z,22.06
2023-05-05T12:41:44.713Z,22.06
2023-05-05T12:42:46.330Z,22.07
2023-05-05T12:43:44.802Z,22.03
2023-05-05T12:44:44.873Z,22.04
2023-05-05T12:45:44.951Z,22.01
2023-05-05T12:46:44.869Z,21.95
2023-05-05T12:47:44.939Z,22.02
2023-05-05T12:48:47.930Z,21.92
2023-05-05T12:49:44.846Z,21.98
2023-05-05T12:50:44.853Z,21.93
2023-05-05T12:51:44.878Z,21.81
2023-05-05T12:52:44.843Z,21.84
2023-05-05T12:53:44.823Z,21.49